createdAt,value
2023-02-06T00:01:31.494Z,34.80
2023-02-06T00:03:59.573Z,23.30
2023-02-06T00:06:27.684Z,30.80
2023-02-06T00:08:55.634Z,21.00
2023-02-06T00:11:24.594Z,27.20
2023-02-06T00:13:52.459Z,26.50
2023-02-06T00:16:23.711Z,25.80
2023-02-06T00:18:52.988Z,24.70
2023-02-06T00:21:24.563Z,16.80
2023-02-06T00:23:54.758Z,20.70
2023-02-06T00:26:23.898Z,19.70
2023-02-06T00:28:51.985Z,19.80
2023-02-06T00:31:20.023Z,23.90
2023-02-06T00:33:48.332Z,20.80
2023-02-06T00:36:16.452Z,24.60
2023-02-06T00:38:44.474Z,19.80
2023-02-06T00:41:12.741Z,19.50
2023-02-06T00:43:42.159Z,29.80
2023-02-06T00:46:10.177Z,30.20
2023-02-06T00:48:38.138Z,23.60
2023-02-06T00:51:06.413Z,18.10
2023-02-06T00:53:34.354Z,23.30
2023-02-06T00:56:02.405Z,22.50
2023-02-06T00:58:30.504Z,22.50
2023-02-06T01:00:58.552Z,23.40
2023-02-06T01:03:26.574Z,24.00
2023-02-06T01:05:54.506Z,22.70
2023-02-06T01:08:22.508Z,19.60
2023-02-06T01:10:50.395Z,20.30
2023-02-06T01:13:18.737Z,22.50
2023-02-06T01:15:46.687Z,22.10
2023-02-06T01:18:14.534Z,24.70
2023-02-06T01:20:42.482Z,18.70
2023-02-06T01:23:10.816Z,16.50
2023-02-06T01:25:38.817Z,19.60
2023-02-06T01:28:06.769Z,21.80
2023-02-06T01:30:34.823Z,20.60
2023-02-06T01:33:02.762Z,18.70
2023-02-06T01:35:30.687Z,18.40
2023-02-06T01:37:58.754Z,20.20
2023-02-06T01:40:26.875Z,20.90
2023-02-06T01:42:54.769Z,16.50
2023-02-06T01:45:31.498Z,19.20
2023-02-06T01:48:04.878Z,20.40
2023-02-06T01:50:34.469Z,22.50
2023-02-06T01:53:05.241Z,19.70
2023-02-06T01:55:36.148Z,20.50
2023-02-06T01:58:05.366Z,18.10
2023-02-06T02:00:33.646Z,20.90
2023-02-06T02:03:02.175Z,16.60
2023-02-06T02:05:33.281Z,25.30
2023-02-06T02:08:20.563Z,21.30
2023-02-06T02:10:48.598Z,39.70
2023-02-06T02:13:17.002Z,24.80
2023-02-06T02:15:59.805Z,23.90
2023-02-06T02:18:51.033Z,19.80
2023-02-06T02:21:56.490Z,18.10
2023-02-06T02:24:38.481Z,18.60
2023-02-06T02:27:15.228Z,28.00
2023-02-06T02:30:11.246Z,22.80
2023-02-06T02:32:57.525Z,20.20
2023-02-06T02:35:48.566Z,21.30
2023-02-06T02:38:38.498Z,23.80
2023-02-06T02:41:38.182Z,24.30
2023-02-06T02:44:15.876Z,21.50
2023-02-06T02:46:47.036Z,23.70
2023-02-06T02:49:19.836Z,22.40
2023-02-06T02:51:49.184Z,22.40
2023-02-06T02:54:18.367Z,19.70
2023-02-06T02:56:46.738Z,19.90
2023-02-06T02:59:24.401Z,18.10
2023-02-06T03:02:08.089Z,17.60
2023-02-06T03:04:51.443Z,21.20
2023-02-06T03:07:25.361Z,15.80
2023-02-06T03:10:06.864Z,19.20
2023-02-06T03:12:34.674Z,21.40
2023-02-06T03:15:09.986Z,21.80
2023-02-06T03:18:08.572Z,22.80
2023-02-06T03:20:42.171Z,20.90
2023-02-06T03:25:44.465Z,17.30
2023-02-06T03:28:18.717Z,23.90
2023-02-06T03:30:51.267Z,20.10
2023-02-06T03:33:25.781Z,20.60
2023-02-06T03:35:56.968Z,17.70
2023-02-06T03:38:26.737Z,22.70
2023-02-06T03:40:58.015Z,19.60
2023-02-06T03:43:29.664Z,19.00
2023-02-06T03:46:02.448Z,15.70
2023-02-06T03:48:35.073Z,19.50
2023-02-06T03:51:18.015Z,17.10
2023-02-06T03:53:48.984Z,20.10
2023-02-06T03:56:35.348Z,18.90
2023-02-06T03:59:03.739Z,19.00
2023-02-06T04:01:32.088Z,17.40
2023-02-06T04:04:00.088Z,15.60
2023-02-06T04:06:28.032Z,19.60
2023-02-06T04:08:56.017Z,18.40
2023-02-06T04:11:23.937Z,19.50
2023-02-06T04:13:51.892Z,19.80
2023-02-06T04:16:19.828Z,21.10
2023-02-06T04:18:47.761Z,25.60
2023-02-06T04:21:15.703Z,17.80
2023-02-06T04:23:43.945Z,18.70
2023-02-06T04:26:11.816Z,20.60
2023-02-06T04:28:39.703Z,26.40
2023-02-06T04:31:07.616Z,18.30
2023-02-06T04:33:35.507Z,23.80
2023-02-06T04:36:03.706Z,23.40
2023-02-06T04:38:31.736Z,21.70
2023-02-06T04:41:07.651Z,18.40
2023-02-06T04:43:35.575Z,20.30
2023-02-06T04:46:03.567Z,19.20
2023-02-06T04:48:31.504Z,20.10
2023-02-06T04:50:59.438Z,19.30
2023-02-06T04:53:27.376Z,21.10
2023-02-06T04:56:05.483Z,18.30
2023-02-06T04:58:34.331Z,16.40
2023-02-06T05:01:02.451Z,17.80
2023-02-06T05:03:30.951Z,19.10
2023-02-06T05:06:00.472Z,19.10
2023-02-06T05:08:28.886Z,17.40
2023-02-06T05:10:57.459Z,22.60
2023-02-06T05:13:25.871Z,18.70
2023-02-06T05:15:53.918Z,20.50
2023-02-06T05:18:21.912Z,21.40
2023-02-06T05:20:50.006Z,22.10
2023-02-06T05:23:18.149Z,18.90
2023-02-06T05:25:46.087Z,26.00
2023-02-06T05:28:14.108Z,24.00
2023-02-06T05:30:42.241Z,24.50
2023-02-06T05:33:10.250Z,27.30
2023-02-06T05:35:39.441Z,22.80
2023-02-06T05:38:07.822Z,22.80
2023-02-06T05:40:35.708Z,22.90
2023-02-06T05:43:03.872Z,23.00
2023-02-06T05:45:31.846Z,25.80
2023-02-06T05:47:59.766Z,24.80
2023-02-06T05:50:27.971Z,25.90
2023-02-06T05:52:55.951Z,33.70
2023-02-06T05:55:23.836Z,28.10
2023-02-06T05:57:51.808Z,27.30
2023-02-06T06:00:20.066Z,23.30
2023-02-06T06:02:47.967Z,21.40
2023-02-06T06:05:16.040Z,22.50
2023-02-06T06:07:43.962Z,20.50
2023-02-06T06:10:11.894Z,41.20
2023-02-06T06:12:39.873Z,37.70
2023-02-06T06:15:08.511Z,46.30
2023-02-06T06:17:36.387Z,36.90
2023-02-06T06:20:05.217Z,33.70
2023-02-06T06:22:33.269Z,36.10
2023-02-06T06:25:01.172Z,45.10
2023-02-06T06:27:29.209Z,40.00
2023-02-06T06:29:57.044Z,45.50
2023-02-06T06:32:25.033Z,36.00
2023-02-06T06:34:52.891Z,37.50
2023-02-06T06:37:20.800Z,23.00
2023-02-06T06:39:48.774Z,30.00
2023-02-06T06:42:16.763Z,25.60
2023-02-06T06:44:44.681Z,34.90
2023-02-06T06:47:12.685Z,34.80
2023-02-06T06:49:40.696Z,34.10
2023-02-06T06:52:19.520Z,26.40
2023-02-06T06:54:52.874Z,30.60
2023-02-06T06:57:22.061Z,25.60
2023-02-06T06:59:50.618Z,21.80
2023-02-06T07:02:18.528Z,26.10
2023-02-06T07:04:46.622Z,27.10
2023-02-06T07:07:14.728Z,26.80
2023-02-06T07:09:42.782Z,27.60
2023-02-06T07:12:10.695Z,24.30
2023-02-06T07:14:40.209Z,22.20
2023-02-06T07:17:08.289Z,24.30
2023-02-06T07:19:36.232Z,22.70
2023-02-06T07:22:04.315Z,27.90
2023-02-06T07:24:32.487Z,28.70
2023-02-06T07:27:00.428Z,24.00
2023-02-06T07:29:28.497Z,23.50
2023-02-06T07:31:56.409Z,22.00
2023-02-06T07:34:24.447Z,23.30
2023-02-06T07:36:52.431Z,21.00
2023-02-06T07:39:20.381Z,23.10
2023-02-06T07:41:50.360Z,23.60
2023-02-06T07:44:18.211Z,22.50
2023-02-06T07:46:46.622Z,25.60
2023-02-06T07:49:16.100Z,26.10
2023-02-06T07:51:45.275Z,23.20
2023-02-06T07:54:13.395Z,25.70
2023-02-06T07:56:41.876Z,21.40
2023-02-06T07:59:10.297Z,22.20
2023-02-06T08:01:38.221Z,22.40
2023-02-06T08:04:06.151Z,24.40
2023-02-06T08:06:34.167Z,26.80
2023-02-06T08:09:02.463Z,27.20
2023-02-06T08:11:31.266Z,23.70
2023-02-06T08:13:59.155Z,25.20
2023-02-06T08:16:27.188Z,19.00
2023-02-06T08:18:55.232Z,21.70
2023-02-06T08:21:25.357Z,26.90
2023-02-06T08:23:58.586Z,25.10
2023-02-06T08:26:29.500Z,21.90
2023-02-06T08:29:00.665Z,18.60
2023-02-06T08:31:36.248Z,21.70
2023-02-06T08:34:05.684Z,17.20
2023-02-06T08:36:34.400Z,17.40
2023-02-06T08:39:04.278Z,16.40
2023-02-06T08:41:37.088Z,16.30
2023-02-06T08:44:09.160Z,17.60
2023-02-06T08:46:38.098Z,14.30
2023-02-06T08:49:11.407Z,18.90
2023-02-06T08:51:39.323Z,18.60
2023-02-06T08:54:11.334Z,20.10
2023-02-06T08:56:39.616Z,21.00
2023-02-06T08:59:08.345Z,16.80
2023-02-06T09:01:37.035Z,20.40
2023-02-06T09:04:10.372Z,19.40
2023-02-06T09:06:41.629Z,14.60
2023-02-06T09:09:11.040Z,19.00
2023-02-06T09:11:39.106Z,16.40
2023-02-06T09:14:08.891Z,18.20
2023-02-06T09:16:37.852Z,19.10
2023-02-06T09:19:06.564Z,18.90
2023-02-06T09:21:35.822Z,16.70
2023-02-06T09:24:06.684Z,21.60
2023-02-06T09:26:44.858Z,18.50
2023-02-06T09:29:21.612Z,21.50
2023-02-06T09:31:49.574Z,19.70
2023-02-06T09:34:17.582Z,21.20
2023-02-06T09:36:45.895Z,21.10
2023-02-06T09:39:13.943Z,26.70
2023-02-06T09:41:49.329Z,25.70
2023-02-06T09:44:27.330Z,21.40
2023-02-06T09:46:58.747Z,25.20
2023-02-06T09:49:38.577Z,22.10
2023-02-06T09:52:36.225Z,24.20
2023-02-06T09:55:19.441Z,16.80
2023-02-06T09:57:58.615Z,24.80
2023-02-06T10:00:40.138Z,22.30
2023-02-06T10:03:22.652Z,20.10
2023-02-06T10:06:27.165Z,21.80
2023-02-06T10:09:05.406Z,22.30
2023-02-06T10:11:48.377Z,22.50
2023-02-06T10:14:36.639Z,24.30
2023-02-06T10:17:12.985Z,20.10
2023-02-06T10:19:53.157Z,18.20
2023-02-06T10:22:30.652Z,17.00
2023-02-06T10:25:17.322Z,16.10
2023-02-06T10:27:47.853Z,23.10
2023-02-06T10:30:22.852Z,21.10
2023-02-06T10:33:23.955Z,20.30
2023-02-06T10:36:05.426Z,17.10
2023-02-06T10:38:51.583Z,21.20
2023-02-06T10:41:41.396Z,15.90
2023-02-06T10:44:40.160Z,17.60
2023-02-06T10:47:26.730Z,14.50
2023-02-06T10:50:02.019Z,17.40
2023-02-06T10:52:37.622Z,17.10
2023-02-06T10:55:13.954Z,17.90
2023-02-06T10:57:43.405Z,16.60
2023-02-06T11:00:21.049Z,15.60
2023-02-06T11:03:17.626Z,15.70
2023-02-06T11:05:46.118Z,15.60
2023-02-06T11:08:27.617Z,19.60
2023-02-06T11:10:56.211Z,20.50
2023-02-06T11:13:27.322Z,14.40
2023-02-06T11:16:22.173Z,15.70
2023-02-06T11:18:51.853Z,20.60
2023-02-06T11:21:41.637Z,15.70
2023-02-06T11:24:13.304Z,14.60
2023-02-06T11:26:43.627Z,16.30
2023-02-06T11:29:16.593Z,15.60
2023-02-06T11:31:58.594Z,15.10
2023-02-06T11:34:53.745Z,18.70
2023-02-06T11:37:40.177Z,18.00
2023-02-06T11:40:17.278Z,18.00
2023-02-06T11:42:54.247Z,16.00
2023-02-06T11:45:31.242Z,16.00
2023-02-06T11:47:59.993Z,15.40
2023-02-06T11:50:35.630Z,15.30
2023-02-06T11:53:18.653Z,16.90
2023-02-06T11:55:59.923Z,16.80
2023-02-06T11:58:29.328Z,15.70
2023-02-06T12:01:01.919Z,16.40
2023-02-06T12:03:43.756Z,14.40
2023-02-06T12:06:22.026Z,14.10
2023-02-06T12:08:56.239Z,12.80
2023-02-06T12:11:52.272Z,13.80
2023-02-06T12:14:32.143Z,12.10
2023-02-06T12:17:03.720Z,11.70
2023-02-06T12:19:40.728Z,13.70
2023-02-06T12:22:17.642Z,18.90
2023-02-06T12:24:49.312Z,14.80
2023-02-06T12:27:24.287Z,14.80
2023-02-06T12:30:01.864Z,16.30
2023-02-06T12:32:37.039Z,14.50
2023-02-06T12:35:35.752Z,19.70
2023-02-06T12:38:13.044Z,15.70
2023-02-06T12:40:45.335Z,17.70
2023-02-06T12:43:16.035Z,14.30
2023-02-06T12:45:46.838Z,14.10
2023-02-06T12:48:23.418Z,15.40
2023-02-06T12:51:06.804Z,15.50
2023-02-06T12:53:54.127Z,19.90
2023-02-06T12:56:24.955Z,18.80
2023-02-06T12:59:03.168Z,18.60
2023-02-06T13:01:58.250Z,19.10
2023-02-06T13:04:30.630Z,15.10
2023-02-06T13:07:07.366Z,14.20
2023-02-06T13:09:41.533Z,17.10
2023-02-06T13:12:21.530Z,14.60
2023-02-06T13:14:56.562Z,19.60
2023-02-06T13:17:42.564Z,16.80
2023-02-06T13:20:16.155Z,16.40
2023-02-06T13:22:55.104Z,18.50
2023-02-06T13:25:25.713Z,22.40
2023-02-06T13:27:55.073Z,17.90
2023-02-06T13:30:28.880Z,20.00
2023-02-06T13:33:16.968Z,21.90
2023-02-06T13:36:01.712Z,18.00
2023-02-06T13:38:37.772Z,14.30
2023-02-06T13:41:14.643Z,15.30
2023-02-06T13:43:42.580Z,18.60
2023-02-06T13:46:17.697Z,19.40
2023-02-06T13:49:16.465Z,20.90
2023-02-06T13:51:53.038Z,22.80
2023-02-06T13:54:34.506Z,21.70
2023-02-06T13:57:08.476Z,17.90
2023-02-06T13:59:47.146Z,17.50
2023-02-06T14:02:35.215Z,15.60
2023-02-06T14:05:06.506Z,14.90
2023-02-06T14:07:57.380Z,15.40
2023-02-06T14:10:46.831Z,16.60
2023-02-06T14:13:33.528Z,16.70
2023-02-06T14:16:23.382Z,19.40
2023-02-06T14:19:19.540Z,21.10
2023-02-06T14:21:58.846Z,17.40
2023-02-06T14:24:45.145Z,16.20
2023-02-06T14:27:34.755Z,23.00
2023-02-06T14:30:21.081Z,16.10
2023-02-06T14:32:54.432Z,15.90
2023-02-06T14:35:39.679Z,19.20
2023-02-06T14:38:19.565Z,18.80
2023-02-06T14:40:51.471Z,19.20
2023-02-06T14:43:24.122Z,19.50
2023-02-06T14:46:06.977Z,18.30
2023-02-06T14:51:04.536Z,17.40
2023-02-06T14:53:36.365Z,15.40
2023-02-06T14:56:24.310Z,15.70
2023-02-06T14:58:52.386Z,22.00
2023-02-06T15:01:28.345Z,16.70
2023-02-06T15:04:30.290Z,17.70
2023-02-06T15:07:05.688Z,32.80
2023-02-06T15:09:39.037Z,15.40
2023-02-06T15:12:23.736Z,20.10
2023-02-06T15:15:14.420Z,18.50
2023-02-06T15:17:43.284Z,17.10
2023-02-06T15:20:40.249Z,19.00
2023-02-06T15:23:40.142Z,17.70
2023-02-06T15:26:35.660Z,19.30
2023-02-06T15:29:06.195Z,19.80
2023-02-06T15:31:34.426Z,19.90
2023-02-06T15:34:02.986Z,23.90
2023-02-06T15:36:36.807Z,19.90
2023-02-06T15:39:09.597Z,20.60
2023-02-06T15:41:43.276Z,23.00
2023-02-06T15:44:27.349Z,21.20
2023-02-06T15:49:44.530Z,19.50
2023-02-06T15:52:14.927Z,24.70
2023-02-06T15:54:45.100Z,55.50
2023-02-06T15:57:30.877Z,30.80
2023-02-06T15:59:59.058Z,44.70
2023-02-06T16:02:37.019Z,55.40
2023-02-06T16:05:09.436Z,36.90
2023-02-06T16:07:37.612Z,30.80
2023-02-06T16:10:08.611Z,34.00
2023-02-06T16:12:39.776Z,23.20
2023-02-06T16:15:33.022Z,24.00
2023-02-06T16:18:29.505Z,41.30
2023-02-06T16:21:16.245Z,29.20
2023-02-06T16:23:53.211Z,58.50
2023-02-06T16:26:26.361Z,57.30
2023-02-06T16:28:56.878Z,43.50
2023-02-06T16:31:30.962Z,43.90
2023-02-06T16:34:03.426Z,62.50
2023-02-06T16:36:33.547Z,67.00
2023-02-06T16:39:04.828Z,58.90
2023-02-06T16:41:37.140Z,57.20
2023-02-06T16:44:13.469Z,37.50
2023-02-06T16:46:45.332Z,66.70
2023-02-06T16:49:22.414Z,95.40
2023-02-06T16:51:53.834Z,56.20
2023-02-06T16:54:32.717Z,67.30
2023-02-06T16:57:25.169Z,42.20
2023-02-06T16:59:53.544Z,57.40
2023-02-06T17:02:24.001Z,49.00
2023-02-06T17:04:55.504Z,58.60
2023-02-06T17:07:26.858Z,40.50
2023-02-06T17:09:56.993Z,39.60
2023-02-06T17:12:28.849Z,31.00
2023-02-06T17:14:59.388Z,37.80
2023-02-06T17:17:27.605Z,40.50
2023-02-06T17:19:55.585Z,40.10
2023-02-06T17:22:23.763Z,37.30
2023-02-06T17:24:51.787Z,30.30
2023-02-06T17:27:22.025Z,31.00
2023-02-06T17:29:51.033Z,30.30
2023-02-06T17:32:22.476Z,32.10
2023-02-06T17:34:56.057Z,31.70
2023-02-06T17:37:24.097Z,26.60
2023-02-06T17:39:52.721Z,31.50
2023-02-06T17:42:23.093Z,44.60
2023-02-06T17:44:51.296Z,32.60
2023-02-06T17:47:19.355Z,34.40
2023-02-06T17:49:47.401Z,36.40
2023-02-06T17:52:15.563Z,29.20
2023-02-06T17:54:44.115Z,27.60
2023-02-06T17:57:13.609Z,32.50
2023-02-06T17:59:41.495Z,29.80
2023-02-06T18:02:13.224Z,28.90
2023-02-06T18:04:41.707Z,25.50
2023-02-06T18:07:09.858Z,25.80
2023-02-06T18:09:37.893Z,34.10
2023-02-06T18:12:06.113Z,34.90
2023-02-06T18:14:35.408Z,38.20
2023-02-06T18:17:06.362Z,27.40
2023-02-06T18:19:41.966Z,28.30
2023-02-06T18:22:12.849Z,30.80
2023-02-06T18:24:41.153Z,27.60
2023-02-06T18:27:09.751Z,26.90
2023-02-06T18:29:49.813Z,33.10
2023-02-06T18:32:19.178Z,38.60
2023-02-06T18:34:47.334Z,37.50
2023-02-06T18:37:15.624Z,26.10
2023-02-06T18:39:43.551Z,26.80
2023-02-06T18:42:30.537Z,29.60
2023-02-06T18:44:58.430Z,34.40
2023-02-06T18:47:26.411Z,28.20
2023-02-06T18:49:54.435Z,35.70
2023-02-06T18:52:22.558Z,34.60
2023-02-06T18:54:50.493Z,31.70
2023-02-06T18:57:18.400Z,40.20
2023-02-06T18:59:46.345Z,33.30
2023-02-06T19:02:14.442Z,35.00
2023-02-06T19:04:42.521Z,35.90
2023-02-06T19:07:11.837Z,46.70
2023-02-06T19:09:39.874Z,27.30
2023-02-06T19:12:08.011Z,37.00
2023-02-06T19:14:36.424Z,36.00
2023-02-06T19:17:04.469Z,28.20
2023-02-06T19:19:32.670Z,27.30
2023-02-06T19:22:00.663Z,24.50
2023-02-06T19:24:30.790Z,28.20
2023-02-06T19:26:58.895Z,42.30
2023-02-06T19:29:35.688Z,52.20
2023-02-06T19:32:07.254Z,59.00
2023-02-06T19:34:38.473Z,49.50
2023-02-06T19:37:09.162Z,50.00
2023-02-06T19:39:40.344Z,51.00
2023-02-06T19:42:10.346Z,35.60
2023-02-06T19:44:38.317Z,29.10
2023-02-06T19:47:06.313Z,54.40
2023-02-06T19:49:34.216Z,34.70
2023-02-06T19:52:03.022Z,40.70
2023-02-06T19:54:30.988Z,28.10
2023-02-06T19:57:00.622Z,34.90
2023-02-06T19:59:29.658Z,30.60
2023-02-06T20:02:00.579Z,30.70
2023-02-06T20:04:34.235Z,31.40
2023-02-06T20:07:03.110Z,28.20
2023-02-06T20:09:31.769Z,24.90
2023-02-06T20:12:00.196Z,24.30
2023-02-06T20:14:28.211Z,25.90
2023-02-06T20:16:56.466Z,24.50
2023-02-06T20:19:27.132Z,32.50
2023-02-06T20:21:59.032Z,26.00
2023-02-06T20:24:30.403Z,26.00
2023-02-06T20:27:02.277Z,28.10
2023-02-06T20:29:35.435Z,35.30
2023-02-06T20:32:04.999Z,34.10
2023-02-06T20:34:33.165Z,27.90
2023-02-06T20:37:01.259Z,30.40
2023-02-06T20:39:31.100Z,44.20
2023-02-06T20:41:59.425Z,41.40
2023-02-06T20:44:29.789Z,26.80
2023-02-06T20:46:57.743Z,20.10
2023-02-06T20:49:27.736Z,25.70
2023-02-06T20:51:56.608Z,30.70
2023-02-06T20:54:25.922Z,28.20
2023-02-06T20:56:53.905Z,27.20
2023-02-06T20:59:22.641Z,23.40
2023-02-06T21:01:50.601Z,24.00
2023-02-06T21:04:19.459Z,26.60
2023-02-06T21:06:48.753Z,26.10
2023-02-06T21:09:18.440Z,28.30
2023-02-06T21:11:48.924Z,32.90
2023-02-06T21:14:17.903Z,27.10
2023-02-06T21:16:46.300Z,28.60
2023-02-06T21:19:16.022Z,30.70
2023-02-06T21:21:46.105Z,27.70
2023-02-06T21:24:16.571Z,24.50
2023-02-06T21:26:44.857Z,24.30
2023-02-06T21:29:14.307Z,22.10
2023-02-06T21:31:43.338Z,23.30
2023-02-06T21:34:17.696Z,26.30
2023-02-06T21:36:46.538Z,30.40
2023-02-06T21:39:20.422Z,26.40
2023-02-06T21:44:20.823Z,30.40
2023-02-06T21:46:48.888Z,30.30
2023-02-06T21:49:17.569Z,33.60
2023-02-06T21:51:45.595Z,22.80
2023-02-06T21:54:13.548Z,24.20
2023-02-06T21:56:41.541Z,21.00
2023-02-06T21:59:11.278Z,30.60
2023-02-06T22:01:41.174Z,28.00
2023-02-06T22:04:11.101Z,27.10
2023-02-06T22:06:39.506Z,20.40
2023-02-06T22:09:11.245Z,25.00
2023-02-06T22:11:40.040Z,23.90
2023-02-06T22:14:11.706Z,23.30
2023-02-06T22:16:40.477Z,22.40
2023-02-06T22:19:10.534Z,19.40
2023-02-06T22:21:38.976Z,19.60
2023-02-06T22:24:09.232Z,26.70
2023-02-06T22:26:39.430Z,23.30
2023-02-06T22:29:10.825Z,19.10
2023-02-06T22:31:40.567Z,23.60
2023-02-06T22:34:14.384Z,24.10
2023-02-06T22:39:13.480Z,18.70
2023-02-06T22:41:44.428Z,18.10
2023-02-06T22:44:16.516Z,25.90
2023-02-06T22:46:47.407Z,20.10
2023-02-06T22:49:16.040Z,24.20
2023-02-06T22:51:44.657Z,38.30
2023-02-06T22:54:14.028Z,22.10
2023-02-06T22:56:43.578Z,18.70
2023-02-06T22:59:21.830Z,21.20
2023-02-06T23:01:51.740Z,29.40
2023-02-06T23:04:24.523Z,23.50
2023-02-06T23:06:53.031Z,24.60
2023-02-06T23:09:26.687Z,22.20
2023-02-06T23:11:58.232Z,20.80
2023-02-06T23:14:27.901Z,19.30
2023-02-06T23:16:55.863Z,20.20
2023-02-06T23:19:23.997Z,18.90
2023-02-06T23:21:52.062Z,19.60
2023-02-06T23:24:21.059Z,19.50
2023-02-06T23:26:51.170Z,25.60
2023-02-06T23:29:20.282Z,25.60
2023-02-06T23:31:49.471Z,22.00
2023-02-06T23:34:18.779Z,36.90
2023-02-06T23:36:47.247Z,27.50
2023-02-06T23:39:15.812Z,23.60
2023-02-06T23:41:43.702Z,32.50
2023-02-06T23:44:12.183Z,28.30
2023-02-06T23:46:41.226Z,48.00
2023-02-06T23:49:09.748Z,23.10
2023-02-06T23:51:38.574Z,21.80
2023-02-06T23:54:07.507Z,55.80
2023-02-06T23:56:35.717Z,28.70
2023-02-06T23:59:05.211Z,27.60
